Aérodrome :
LOGIN :

S'inscrire | Disclaimer

   EN    FR    IT 

 










Légende :    VFR   VFR Marginal   IFR   IFR Intensif   IFR Très Intensif
Visi : 
Plafond : 
>= 8 km
>= 3000ft
5 à 8 km
1000 à 3000 ft
1500m à 5 km
500 à 1000 ft
800 à 1500m
200 à 500 ft
< 800m
< 200 ft
Symboles :   Orages  Brouillard  Fortes neiges  Fortes précipitations  Vent > 20 kt
SIGMETs :   Divers  Orages  Givrage  Turbulence  Onde Orograph.  Cendres Volcan.







- Altitude de l'aérodrome : 166 ft
- Code IATA : SZW


EDOP - Schwerin Parchim

DERNIER METAR :
  • 200820Z 08007KT 8000 NSC 12/11 Q1011

METARs EXPIRÉS :
  • 200750Z 09006KT 6000 NSC 12/11 Q1011
  • 200720Z 08006KT 4500 BR NSC 11/11 Q1011
  • 200650Z 07004KT 3700 BR NSC 10/10 Q1011
  • 200620Z 07005KT 2500 BR NSC 10/10 Q1011
  • 200550Z 09004KT 3000 BR NSC 10/10 Q1012

TAF TAF EDOP
Valide du 20 à 06h jusqu'au 21 à 06h UTC


200500Z 2006/2106 VRB03KT 2000 BR NSC
TEMPO 2006/2008 0700 FG
PROB30
TEMPO 2006/2008 BKN001
BECMG 2008/2011 15005KT 9999
PROB40
TEMPO 2016/2021 4000 SHRA BKN012CB
Pas de NOTAMs connus pour ce terrain.



MET'MAP, la Météo Aéronautique d'un coup d'oeil ! - Copyright ORBIFLY Décembre 2007 - Disclaimer

ORBIFLY MET'MAP TEAM :

Programmation & Développement : Alexandra Zaïnal
Conception & Développement : Baudouin d'Aumeries
Co-Programmation & Développement : Marc-Olivier Méhu
Soutien technique & logistique : Manuel Goepfert

Contact : metmap@orbifly.com




SOURCES & CREDITS :

   NOAA